createdAt,value
2018-11-25T00:05:48.382Z,15.40
2018-11-25T00:15:51.640Z,19.00
2018-11-25T00:25:54.906Z,18.10
2018-11-25T00:35:58.130Z,16.90
2018-11-25T00:46:01.337Z,15.40
2018-11-25T00:56:04.630Z,16.13
2018-11-25T01:06:07.843Z,17.13
2018-11-25T01:16:11.077Z,16.53
2018-11-25T01:26:14.302Z,16.83
2018-11-25T01:36:17.522Z,15.50
2018-11-25T01:46:20.733Z,15.37
2018-11-25T01:56:24.006Z,15.10
2018-11-25T02:06:27.249Z,15.27
2018-11-25T02:16:30.506Z,14.33
2018-11-25T02:26:33.734Z,14.90
2018-11-25T02:36:36.986Z,13.63
2018-11-25T02:46:40.234Z,13.50
2018-11-25T02:56:43.490Z,13.77
2018-11-25T03:06:46.739Z,12.97
2018-11-25T03:16:50.008Z,13.37
2018-11-25T03:26:53.260Z,13.50
2018-11-25T03:36:56.497Z,12.40
2018-11-25T03:46:59.738Z,13.47
2018-11-25T03:57:03.005Z,13.73
2018-11-25T04:07:06.328Z,13.63
2018-11-25T04:17:09.533Z,11.90
2018-11-25T04:27:12.777Z,13.93
2018-11-25T04:37:15.998Z,13.10
2018-11-25T04:47:19.225Z,13.07
2018-11-25T04:57:22.478Z,12.07
2018-11-25T05:07:25.700Z,12.77
2018-11-25T05:17:30.175Z,12.37
2018-11-25T05:27:32.161Z,12.00
2018-11-25T05:37:35.388Z,12.83
2018-11-25T05:47:38.653Z,12.13
2018-11-25T05:57:42.065Z,12.00
2018-11-25T06:07:45.287Z,11.93
2018-11-25T06:17:48.533Z,18.17
2018-11-25T06:27:51.806Z,11.97
2018-11-25T06:37:55.041Z,11.53
2018-11-25T06:47:58.677Z,11.97
2018-11-25T06:58:01.977Z,12.37
2018-11-25T07:08:05.625Z,12.20
2018-11-25T07:18:08.863Z,12.70
2018-11-25T07:28:18.576Z,11.43
2018-11-25T07:38:16.181Z,11.63
2018-11-25T07:48:19.399Z,12.20
2018-11-25T07:58:22.666Z,12.80
2018-11-25T08:08:26.001Z,11.70
2018-11-25T08:18:29.381Z,12.27
2018-11-25T08:28:32.703Z,12.20
2018-11-25T08:38:36.018Z,14.00
2018-11-25T08:48:39.407Z,16.40
2018-11-25T08:58:42.739Z,17.00
2018-11-25T09:08:46.212Z,18.00
2018-11-25T09:18:49.404Z,17.07
2018-11-25T09:28:52.749Z,17.73
2018-11-25T09:38:56.134Z,18.43
2018-11-25T09:48:59.393Z,18.20
2018-11-25T09:59:02.668Z,18.53
2018-11-25T10:09:08.445Z,18.47
2018-11-25T10:19:11.742Z,18.43
2018-11-25T10:29:14.971Z,17.87
2018-11-25T10:39:18.223Z,17.03
2018-11-25T10:49:22.512Z,16.80
2018-11-25T10:59:24.953Z,16.93
2018-11-25T11:09:28.333Z,16.67
2018-11-25T11:19:31.681Z,15.20
2018-11-25T11:29:34.986Z,15.73
2018-11-25T11:39:38.377Z,15.80
2018-11-25T11:49:41.745Z,15.87
2018-11-25T11:59:45.274Z,15.63
2018-11-25T12:09:48.737Z,14.20
2018-11-25T12:19:52.089Z,14.47
2018-11-25T12:29:55.442Z,15.40
2018-11-25T12:39:58.732Z,15.90
2018-11-25T12:50:02.125Z,16.30
2018-11-25T13:00:13.961Z,16.97
2018-11-25T13:10:17.493Z,16.20
2018-11-25T13:20:21.898Z,15.30
2018-11-25T13:30:26.716Z,15.97
2018-11-25T13:40:30.310Z,16.60
2018-11-25T13:50:33.915Z,15.73
2018-11-25T14:00:42.397Z,16.30
2018-11-25T14:10:45.753Z,16.87
2018-11-25T14:20:49.123Z,16.33
2018-11-25T14:30:52.499Z,16.07
2018-11-25T14:40:56.124Z,15.90
2018-11-25T14:50:59.442Z,15.07
2018-11-25T15:01:02.782Z,15.73
2018-11-25T15:11:07.309Z,17.60
2018-11-25T15:21:12.187Z,16.30
2018-11-25T15:31:15.541Z,15.47
2018-11-25T15:41:19.853Z,15.83
2018-11-25T15:51:23.336Z,15.37
2018-11-25T16:01:26.913Z,15.10
2018-11-25T16:11:30.220Z,14.80
2018-11-25T16:21:33.499Z,15.63
2018-11-25T16:31:36.859Z,17.57
2018-11-25T16:41:40.238Z,17.23
2018-11-25T16:51:43.538Z,17.30
2018-11-25T17:01:46.879Z,17.20
2018-11-25T17:11:50.229Z,17.33
2018-11-25T17:21:53.882Z,16.90
2018-11-25T17:31:57.240Z,17.13
2018-11-25T17:42:00.577Z,18.37
2018-11-25T17:52:03.908Z,18.90
2018-11-25T18:02:07.265Z,17.80
2018-11-25T18:12:10.681Z,19.80
2018-11-25T18:22:17.700Z,17.80
2018-11-25T18:32:21.063Z,19.27
2018-11-25T18:42:24.356Z,19.50
2018-11-25T18:52:27.676Z,18.83
2018-11-25T19:02:46.410Z,20.20
2018-11-25T19:12:49.749Z,19.30
2018-11-25T19:22:53.358Z,22.80
2018-11-25T19:32:56.718Z,19.93
2018-11-25T19:43:00.078Z,20.93
2018-11-25T19:53:03.398Z,20.20
2018-11-25T20:03:07.109Z,20.23
2018-11-25T20:13:11.931Z,20.57
2018-11-25T20:23:15.278Z,20.20
2018-11-25T20:33:24.119Z,21.17
2018-11-25T20:43:27.474Z,20.30
2018-11-25T20:53:36.170Z,19.37
2018-11-25T21:03:40.063Z,19.50
2018-11-25T21:13:43.329Z,17.77
2018-11-25T21:23:46.671Z,17.17
2018-11-25T21:33:50.053Z,17.33
2018-11-25T21:43:53.408Z,16.83
2018-11-25T21:53:56.709Z,15.33
2018-11-25T22:04:00.066Z,12.97
2018-11-25T22:14:03.422Z,12.20
2018-11-25T22:24:06.757Z,12.80
2018-11-25T22:34:10.090Z,12.70
2018-11-25T22:44:13.438Z,12.80
2018-11-25T22:54:16.853Z,12.27
2018-11-25T23:04:31.720Z,14.03
2018-11-25T23:14:35.298Z,15.30
2018-11-25T23:24:38.821Z,14.90
2018-11-25T23:34:42.134Z,14.77
2018-11-25T23:44:45.797Z,14.73
2018-11-25T23:54:49.120Z,15.37
